Time;durP1;ratioP1;P1;durP2;ratioP2;P2;SDS_P1;SDS_P2;PMS_P1;PMS_P2;Temp;Humidity;BMP_temperature;BMP_pressure;BME280_temperature;BME280_humidity;BME280_pressure;Samples;Min_cycle;Max_cycle;Signal;HPM_P1;HPM_P2
2022/05/19 04:00:33;;;;;;;10.93;10.23;;;18.10;99.90;;;;;;5888560;23;20372;-70
2022/05/19 04:03:00;;;;;;;11.33;10.40;;;18.10;99.90;;;;;;4974843;28;20471;-71
2022/05/19 04:05:27;;;;;;;12.13;10.93;;;18.10;99.90;;;;;;4972766;28;20491;-71
2022/05/19 04:07:54;;;;;;;10.90;10.17;;;18.10;99.90;;;;;;4973798;28;20466;-71
2022/05/19 04:10:21;;;;;;;11.20;10.30;;;18.10;99.90;;;;;;4968822;28;20499;-71
2022/05/19 04:12:48;;;;;;;11.97;11.07;;;18.20;99.90;;;;;;4955531;28;20953;-71
2022/05/19 04:15:15;;;;;;;11.10;10.40;;;18.20;99.90;;;;;;4939975;29;20545;-71
2022/05/19 04:17:43;;;;;;;11.30;10.50;;;18.30;99.90;;;;;;4939201;28;20480;-71
2022/05/19 04:20:11;;;;;;;12.70;11.57;;;18.30;99.90;;;;;;4942955;29;20475;-71
2022/05/19 04:22:37;;;;;;;11.67;10.70;;;18.30;99.90;;;;;;4956019;28;20528;-71
2022/05/19 04:25:06;;;;;;;12.40;11.40;;;18.30;99.90;;;;;;4955371;28;20572;-70
2022/05/19 04:27:33;;;;;;;11.43;10.53;;;18.40;99.90;;;;;;4955241;28;20480;-72
2022/05/19 04:30:00;;;;;;;11.50;10.43;;;18.50;99.90;;;;;;4953017;29;20473;-71
2022/05/19 04:32:27;;;;;;;11.87;10.87;;;18.60;99.90;;;;;;4955067;28;20488;-72
2022/05/19 04:34:55;;;;;;;11.60;10.57;;;18.70;99.90;;;;;;4936173;29;20468;-71
2022/05/19 04:37:22;;;;;;;11.20;10.50;;;18.80;99.90;;;;;;4934895;29;20524;-72
2022/05/19 04:39:48;;;;;;;11.53;10.73;;;19.00;99.90;;;;;;4939595;29;20472;-71
2022/05/19 04:42:15;;;;;;;11.60;10.70;;;19.10;99.90;;;;;;4944675;28;20485;-72
2022/05/19 04:44:42;;;;;;;11.43;10.70;;;19.10;99.90;;;;;;4946210;29;20469;-71
2022/05/19 04:47:09;;;;;;;11.17;10.37;;;19.20;99.90;;;;;;4950356;28;20466;-71
2022/05/19 04:49:35;;;;;;;10.97;10.27;;;19.30;99.90;;;;;;4952246;29;20556;-71
2022/05/19 04:52:04;;;;;;;11.00;10.20;;;19.40;99.90;;;;;;4938920;28;20500;-72
2022/05/19 04:54:31;;;;;;;9.57;8.97;;;19.60;99.90;;;;;;4953207;28;20524;-71
2022/05/19 04:56:57;;;;;;;10.43;9.70;;;19.70;99.90;;;;;;4947368;29;20516;-72
2022/05/19 04:59:24;;;;;;;11.47;10.53;;;19.80;99.90;;;;;;4948284;28;20847;-72
2022/05/19 05:01:50;;;;;;;10.97;10.20;;;19.90;99.90;;;;;;4953296;28;20610;-71
2022/05/19 05:04:19;;;;;;;10.37;9.77;;;20.20;99.90;;;;;;4954618;28;20527;-72
2022/05/19 05:06:45;;;;;;;10.40;9.27;;;20.40;99.90;;;;;;4952377;28;20492;-72
2022/05/19 05:09:13;;;;;;;10.47;9.80;;;20.60;99.90;;;;;;4936421;29;20765;-72
2022/05/19 05:11:41;;;;;;;10.93;10.10;;;20.80;99.90;;;;;;4953633;28;20500;-72
2022/05/19 05:14:07;;;;;;;10.10;9.50;;;21.10;99.90;;;;;;4953789;28;20567;-72
2022/05/19 05:16:34;;;;;;;10.50;9.80;;;21.40;99.90;;;;;;4953844;28;20468;-72
2022/05/19 05:19:01;;;;;;;10.07;9.27;;;21.70;99.90;;;;;;4953893;28;20535;-72
2022/05/19 05:21:28;;;;;;;10.33;9.67;;;22.00;99.90;;;;;;4952850;28;20932;-73
2022/05/19 05:23:54;;;;;;;9.70;9.10;;;22.10;99.90;;;;;;4950606;28;20947;-72
2022/05/19 05:26:22;;;;;;;8.80;8.30;;;22.00;99.90;;;;;;4934741;29;21028;-72
2022/05/19 05:28:49;;;;;;;9.93;9.10;;;22.00;99.90;;;;;;4934432;29;20477;-72
2022/05/19 05:31:16;;;;;;;8.90;8.40;;;21.90;99.90;;;;;;4943303;28;20572;-72
2022/05/19 05:33:42;;;;;;;10.60;9.70;;;21.70;99.90;;;;;;4936405;29;20470;-72
2022/05/19 05:36:09;;;;;;;9.40;8.80;;;21.50;99.90;;;;;;4935855;29;20533;-72
2022/05/19 05:38:36;;;;;;;10.10;9.43;;;21.50;99.90;;;;;;4935071;29;20470;-71
2022/05/19 05:41:03;;;;;;;9.83;9.23;;;21.40;99.90;;;;;;4947689;28;20548;-72
2022/05/19 05:43:31;;;;;;;9.60;9.10;;;21.40;99.90;;;;;;4941722;29;20484;-73
2022/05/19 05:46:05;;;;;;;9.43;9.00;;;21.40;99.90;;;;;;4950959;28;20691;-73
2022/05/19 05:48:36;;;;;;;9.67;9.17;;;21.70;99.90;;;;;;4945227;28;20476;-73
2022/05/19 05:51:03;;;;;;;9.40;8.90;;;21.90;99.90;;;;;;4952090;28;20492;-73
2022/05/19 05:53:30;;;;;;;9.07;8.47;;;22.30;99.90;;;;;;4949741;28;20933;-72
2022/05/19 05:55:57;;;;;;;7.07;6.73;;;22.70;99.90;;;;;;4951081;29;20480;-73
2022/05/19 05:58:23;;;;;;;8.53;8.03;;;23.30;99.90;;;;;;4952686;28;20532;-72
2022/05/19 06:00:51;;;;;;;8.20;7.90;;;24.00;99.90;;;;;;4949815;28;20502;-72
2022/05/19 06:03:18;;;;;;;8.33;7.80;;;24.40;99.90;;;;;;4954178;28;20526;-72
2022/05/19 06:05:45;;;;;;;8.30;7.90;;;24.70;99.90;;;;;;4954468;28;20485;-73
2022/05/19 06:08:12;;;;;;;8.23;7.73;;;24.90;99.90;;;;;;4953122;28;20458;-72
2022/05/19 06:10:39;;;;;;;7.87;7.47;;;24.90;99.90;;;;;;4952429;29;21228;-72
2022/05/19 06:13:06;;;;;;;7.43;7.13;;;25.20;99.90;;;;;;4951149;28;20936;-73
2022/05/19 06:15:33;;;;;;;6.97;6.67;;;25.20;99.90;;;;;;4946029;29;20468;-73
2022/05/19 06:18:01;;;;;;;6.80;6.60;;;25.20;99.90;;;;;;4953477;28;20468;-73
2022/05/19 06:20:28;;;;;;;7.13;6.63;;;25.20;99.90;;;;;;4945482;28;20470;-73
2022/05/19 06:22:55;;;;;;;7.60;7.00;;;25.00;99.90;;;;;;4953333;28;21036;-72
2022/05/19 06:25:24;;;;;;;6.03;5.80;;;24.90;99.90;;;;;;4952773;28;20582;-72
2022/05/19 06:27:51;;;;;;;7.13;6.83;;;25.00;99.90;;;;;;4953404;28;20498;-72
2022/05/19 06:30:20;;;;;;;6.50;6.10;;;25.60;99.90;;;;;;4947857;28;20486;-73
2022/05/19 06:32:48;;;;;;;6.43;6.23;;;26.00;99.90;;;;;;4952560;28;20487;-72
2022/05/19 06:35:19;;;;;;;7.63;7.23;;;26.60;99.90;;;;;;4947810;28;21011;-71
2022/05/19 06:37:45;;;;;;;6.13;5.93;;;26.90;99.90;;;;;;4938054;29;20486;-72
2022/05/19 06:40:15;;;;;;;5.80;5.63;;;27.00;99.90;;;;;;4952705;29;20471;-72
2022/05/19 06:42:41;;;;;;;6.10;5.90;;;27.50;99.90;;;;;;4952654;28;20501;-71
2022/05/19 06:45:09;;;;;;;6.10;5.83;;;27.90;99.90;;;;;;4951767;28;20472;-72
2022/05/19 06:47:36;;;;;;;6.20;6.00;;;28.20;99.90;;;;;;4953577;28;20536;-71
2022/05/19 06:50:05;;;;;;;6.10;5.90;;;28.30;99.90;;;;;;4951004;28;20554;-71
2022/05/19 06:52:34;;;;;;;6.00;5.63;;;28.30;99.90;;;;;;4951286;28;20857;-71
2022/05/19 06:55:03;;;;;;;6.20;5.90;;;28.80;99.90;;;;;;4952511;29;20463;-72
2022/05/19 06:57:31;;;;;;;5.90;5.60;;;28.80;99.90;;;;;;4953684;28;20521;-71
2022/05/19 06:59:58;;;;;;;5.17;4.83;;;29.20;99.90;;;;;;4950232;28;20887;-72
2022/05/19 07:02:26;;;;;;;6.07;5.77;;;29.60;99.90;;;;;;4950432;28;20547;-72
2022/05/19 07:04:52;;;;;;;5.67;5.47;;;29.40;99.90;;;;;;4956429;28;20527;-72
2022/05/19 07:07:19;;;;;;;5.63;5.40;;;29.60;99.90;;;;;;4948877;29;20489;-71
2022/05/19 07:09:47;;;;;;;5.60;5.20;;;29.80;99.90;;;;;;4945012;28;20860;-72
2022/05/19 07:12:21;;;;;;;5.47;5.10;;;29.60;99.90;;;;;;4953758;28;20499;-72
2022/05/19 07:14:48;;;;;;;5.70;5.50;;;29.70;99.90;;;;;;4944363;28;20461;-72
2022/05/19 07:17:15;;;;;;;5.23;5.03;;;29.40;99.90;;;;;;4951101;29;20562;-71
2022/05/19 07:22:26;;;;;;;4.90;4.80;;;29.40;99.60;;;;;;4952281;29;20486;-72
2022/05/19 07:24:54;;;;;;;4.93;4.83;;;29.50;99.90;;;;;;4953654;29;20991;-71
2022/05/19 07:27:21;;;;;;;5.20;5.00;;;29.80;98.70;;;;;;4955892;29;20487;-73
2022/05/19 07:29:48;;;;;;;4.50;4.40;;;29.70;98.80;;;;;;4955064;28;20530;-72
2022/05/19 07:32:15;;;;;;;5.20;5.00;;;30.00;97.90;;;;;;4956952;28;20487;-72
2022/05/19 07:34:43;;;;;;;4.60;4.33;;;30.50;97.90;;;;;;4956200;28;20476;-72
2022/05/19 07:37:11;;;;;;;4.80;4.70;;;30.40;96.80;;;;;;4957160;28;20559;-72
2022/05/19 07:39:38;;;;;;;5.07;4.87;;;30.40;97.00;;;;;;4954416;28;20472;-72
2022/05/19 07:42:07;;;;;;;4.67;4.53;;;30.20;96.50;;;;;;4952851;29;20507;-72
2022/05/19 07:44:33;;;;;;;5.30;5.00;;;30.00;96.70;;;;;;4943694;28;20480;-71
2022/05/19 07:47:00;;;;;;;4.87;4.57;;;30.20;96.90;;;;;;4950556;28;20536;-72
2022/05/19 07:49:27;;;;;;;4.50;4.40;;;30.10;96.30;;;;;;4955964;29;20472;-71
2022/05/19 07:51:54;;;;;;;4.70;4.53;;;29.70;96.20;;;;;;4955953;28;20495;-71
2022/05/19 07:54:22;;;;;;;4.83;4.63;;;29.30;96.70;;;;;;4944202;28;20476;-71
2022/05/19 07:56:49;;;;;;;4.60;4.40;;;29.20;97.60;;;;;;4948372;29;20465;-71
2022/05/19 07:59:17;;;;;;;4.83;4.73;;;29.50;97.20;;;;;;4955121;28;20482;-71
2022/05/19 08:01:45;;;;;;;4.80;4.70;;;29.70;96.90;;;;;;4954247;28;20551;-71
2022/05/19 08:04:13;;;;;;;4.83;4.63;;;29.40;96.70;;;;;;4955310;28;20853;-70
2022/05/19 08:06:40;;;;;;;4.77;4.60;;;29.40;96.80;;;;;;4955206;28;20492;-71
2022/05/19 08:11:48;;;;;;;4.80;4.50;;;29.20;96.10;;;;;;4954263;28;20661;-71
2022/05/19 08:17:00;;;;;;;4.93;4.73;;;28.40;96.60;;;;;;4949946;29;20474;-71
2022/05/19 08:19:27;;;;;;;7.30;5.13;;;28.30;96.50;;;;;;4948865;29;20470;-71
2022/05/19 08:21:53;;;;;;;4.73;4.53;;;28.40;97.00;;;;;;4954231;28;21067;-70
2022/05/19 08:24:24;;;;;;;5.00;4.63;;;28.30;96.60;;;;;;4955049;28;20837;-71
2022/05/19 08:26:50;;;;;;;5.10;4.90;;;28.20;96.90;;;;;;4955121;28;20475;-71
2022/05/19 08:29:19;;;;;;;5.17;4.83;;;28.00;97.20;;;;;;4948626;28;20982;-70
2022/05/19 08:31:46;;;;;;;4.03;4.00;;;28.00;97.80;;;;;;4945622;29;20553;-71
2022/05/19 08:34:13;;;;;;;4.57;4.47;;;28.00;97.40;;;;;;4954968;28;20532;-71
2022/05/19 08:36:40;;;;;;;4.57;4.47;;;27.80;97.50;;;;;;4954824;28;20498;-71
2022/05/19 08:39:07;;;;;;;4.63;4.43;;;27.80;97.30;;;;;;4955054;28;20833;-71
2022/05/19 08:41:38;;;;;;;5.00;4.73;;;27.70;97.80;;;;;;4952455;29;20492;-70
2022/05/19 08:44:09;;;;;;;5.20;4.93;;;27.60;97.60;;;;;;4954232;28;20905;-71
2022/05/19 08:46:40;;;;;;;5.30;4.90;;;27.30;98.10;;;;;;4954408;28;20565;-71
2022/05/19 08:49:13;;;;;;;5.97;5.57;;;27.30;98.60;;;;;;4952663;28;20582;-71
2022/05/19 08:51:47;;;;;;;5.20;5.00;;;27.40;97.70;;;;;;4953776;28;20583;-71
2022/05/19 08:54:23;;;;;;;5.13;4.93;;;27.20;98.10;;;;;;4951933;29;20494;-71
2022/05/19 08:56:58;;;;;;;5.37;5.07;;;27.10;98.90;;;;;;4949578;29;20962;-71
2022/05/19 08:59:38;;;;;;;5.63;5.40;;;27.40;98.60;;;;;;4951025;29;20481;-71
2022/05/19 09:02:13;;;;;;;5.50;5.20;;;27.30;98.60;;;;;;4954309;28;20493;-71
2022/05/19 09:04:52;;;;;;;6.37;5.97;;;27.40;99.20;;;;;;4952240;28;20545;-71
2022/05/19 09:10:23;;;;;;;4.73;4.43;;;27.70;99.00;;;;;;4953231;29;20462;-71
2022/05/19 09:12:56;;;;;;;5.83;5.63;;;27.80;98.70;;;;;;4954388;29;20542;-72
2022/05/19 09:15:22;;;;;;;5.20;5.00;;;27.90;97.90;;;;;;4946296;28;20539;-71
2022/05/19 09:17:51;;;;;;;5.30;5.10;;;27.80;98.10;;;;;;4955997;28;20469;-71
2022/05/19 09:20:23;;;;;;;6.13;5.70;;;27.90;98.40;;;;;;4952786;28;20474;-71
2022/05/19 09:22:50;;;;;;;4.83;4.70;;;27.80;98.10;;;;;;4946607;29;20472;-72
2022/05/19 09:25:22;;;;;;;5.00;4.80;;;27.90;98.20;;;;;;4948053;29;20518;-71
2022/05/19 09:27:51;;;;;;;5.37;5.17;;;27.70;98.50;;;;;;4948801;29;20959;-72
2022/05/19 09:30:33;;;;;;;5.50;5.20;;;27.90;98.60;;;;;;4947627;29;20970;-71
2022/05/19 09:33:05;;;;;;;5.30;5.17;;;27.80;97.50;;;;;;4952404;28;20503;-71
2022/05/19 09:35:42;;;;;;;5.30;5.00;;;27.80;98.20;;;;;;4950563;28;20813;-72
2022/05/19 09:38:13;;;;;;;4.83;4.50;;;27.90;97.70;;;;;;4951907;28;20460;-71
2022/05/19 09:40:42;;;;;;;5.27;5.03;;;28.00;97.80;;;;;;4934583;29;20491;-72
2022/05/19 09:43:15;;;;;;;5.10;4.80;;;28.10;97.00;;;;;;4934492;29;20458;-72
2022/05/19 09:45:44;;;;;;;4.77;4.60;;;28.10;96.80;;;;;;4933891;29;20502;-71
2022/05/19 09:48:13;;;;;;;4.27;4.17;;;28.30;97.40;;;;;;4941302;29;20496;-71
2022/05/19 09:50:44;;;;;;;5.07;4.87;;;28.50;96.60;;;;;;4945854;28;20521;-72
2022/05/19 09:53:15;;;;;;;4.40;4.30;;;28.70;96.30;;;;;;4953255;28;20495;-72
2022/05/19 09:55:42;;;;;;;4.47;4.27;;;28.70;95.80;;;;;;4945420;28;20806;-72
2022/05/19 09:58:10;;;;;;;5.57;5.37;;;28.80;95.20;;;;;;4937800;29;20474;-72
2022/05/19 10:00:43;;;;;;;4.53;4.30;;;29.00;95.00;;;;;;4949790;29;20895;-71
2022/05/19 10:03:19;;;;;;;5.07;4.77;;;28.90;94.60;;;;;;4950371;28;20874;-71
2022/05/19 10:05:49;;;;;;;4.70;4.40;;;28.80;93.80;;;;;;4945743;29;20493;-71
2022/05/19 10:08:19;;;;;;;4.27;4.07;;;28.90;94.30;;;;;;4952782;29;20479;-71
2022/05/19 10:10:55;;;;;;;4.40;4.20;;;28.90;93.80;;;;;;4933762;29;20500;-72
2022/05/19 10:13:27;;;;;;;4.23;4.03;;;28.90;94.20;;;;;;4949244;28;20471;-71
2022/05/19 10:15:59;;;;;;;4.30;4.10;;;28.90;94.60;;;;;;4948048;28;20474;-71
2022/05/19 10:18:45;;;;;;;5.60;5.10;;;28.90;94.60;;;;;;4956081;28;20455;-71
2022/05/19 10:21:24;;;;;;;5.00;4.67;;;29.00;94.50;;;;;;4948594;29;20964;-72
2022/05/19 10:24:14;;;;;;;6.03;5.53;;;28.90;94.70;;;;;;4956358;28;20971;-71
2022/05/19 10:26:48;;;;;;;4.57;4.37;;;28.80;94.10;;;;;;4953073;28;20494;-71
2022/05/19 10:32:48;;;;;;;4.10;3.97;;;28.90;93.50;;;;;;4934223;29;20974;-71
2022/05/19 10:35:24;;;;;;;3.80;3.67;;;28.80;92.10;;;;;;4938681;28;20538;-71
2022/05/19 10:38:03;;;;;;;3.90;3.80;;;28.60;91.80;;;;;;4945808;29;20470;-71
2022/05/19 10:40:45;;;;;;;4.13;4.03;;;28.60;91.60;;;;;;4953853;29;20486;-72
2022/05/19 10:43:31;;;;;;;3.80;3.70;;;28.90;91.90;;;;;;4955913;29;20501;-71
2022/05/19 10:46:01;;;;;;;4.07;3.97;;;29.00;91.40;;;;;;4958155;29;20517;-72
2022/05/19 10:48:53;;;;;;;4.17;4.07;;;29.10;92.30;;;;;;4958246;28;20490;-72
2022/05/19 10:51:35;;;;;;;4.37;4.27;;;29.00;92.20;;;;;;4952382;28;20546;-71
2022/05/19 10:54:18;;;;;;;4.40;4.20;;;29.10;91.70;;;;;;4954593;28;20478;-72
2022/05/19 10:57:14;;;;;;;3.90;3.80;;;29.00;91.40;;;;;;4956053;28;20574;-71
2022/05/19 10:59:54;;;;;;;5.00;4.23;;;29.10;91.90;;;;;;4947271;28;20475;-72
2022/05/19 11:02:48;;;;;;;4.20;4.10;;;29.20;91.20;;;;;;4953502;28;21027;-71
2022/05/19 11:05:34;;;;;;;3.73;3.63;;;29.30;91.50;;;;;;4940987;28;20472;-71
2022/05/19 11:08:10;;;;;;;4.13;4.03;;;29.40;91.40;;;;;;4934895;29;20834;-72
2022/05/19 11:10:43;;;;;;;3.90;3.87;;;29.50;91.80;;;;;;4952596;28;20488;-72
2022/05/19 11:13:26;;;;;;;3.70;3.60;;;29.50;91.60;;;;;;4953633;28;20851;-71
2022/05/19 11:16:00;;;;;;;4.33;4.23;;;29.40;91.00;;;;;;4953218;28;20538;-71
2022/05/19 11:18:33;;;;;;;4.33;4.13;;;29.40;91.00;;;;;;4948256;28;20524;-71
2022/05/19 11:21:07;;;;;;;3.70;3.60;;;29.30;90.70;;;;;;4936428;29;20518;-71
2022/05/19 11:23:47;;;;;;;3.90;3.70;;;29.30;90.60;;;;;;4952050;29;20445;-71
2022/05/19 11:26:23;;;;;;;4.20;4.10;;;29.50;90.60;;;;;;4959325;28;20502;-70
2022/05/19 11:28:58;;;;;;;3.70;3.43;;;29.40;89.30;;;;;;4957627;29;20470;-71
2022/05/19 11:31:32;;;;;;;4.40;4.20;;;29.10;88.80;;;;;;4957700;29;20474;-71
2022/05/19 11:34:01;;;;;;;4.00;3.90;;;29.10;89.40;;;;;;4958307;28;20508;-70
2022/05/19 11:36:37;;;;;;;4.67;4.23;;;29.10;89.30;;;;;;4959611;29;20444;-70
2022/05/19 11:39:12;;;;;;;4.70;4.40;;;29.00;89.00;;;;;;4973859;28;20453;-71
2022/05/19 11:41:40;;;;;;;4.17;4.07;;;29.00;89.30;;;;;;4977100;28;20488;-70
2022/05/19 11:44:11;;;;;;;3.97;3.90;;;29.00;89.70;;;;;;4977628;28;20471;-71
2022/05/19 11:46:44;;;;;;;4.30;4.20;;;29.00;89.60;;;;;;4977968;28;20514;-72
2022/05/19 11:55:16;;;;;;;3.80;3.80;;;29.20;90.20;;;;;;4958381;29;20452;-72
2022/05/19 11:57:49;;;;;;;4.83;4.63;;;29.40;89.40;;;;;;4956896;28;20472;-71
2022/05/19 12:00:23;;;;;;;3.73;3.70;;;29.50;88.80;;;;;;4955165;28;20554;-71
2022/05/19 12:02:53;;;;;;;4.70;4.40;;;29.40;86.70;;;;;;4942211;28;20462;-71
2022/05/19 12:05:35;;;;;;;4.53;4.40;;;29.30;86.80;;;;;;4937839;29;20464;-71
2022/05/19 12:08:13;;;;;;;4.20;4.00;;;29.20;87.70;;;;;;4936620;29;20532;-71
2022/05/19 12:10:48;;;;;;;3.97;3.80;;;29.40;90.00;;;;;;4935610;29;20540;-71
2022/05/19 12:13:19;;;;;;;4.60;4.50;;;29.50;88.90;;;;;;4936133;29;20504;-72
2022/05/19 12:15:54;;;;;;;4.60;4.50;;;29.40;85.80;;;;;;4951060;29;20990;-71
2022/05/19 12:18:42;;;;;;;3.97;3.87;;;29.20;87.00;;;;;;4950019;29;20468;-71
2022/05/19 12:21:51;;;;;;;5.83;5.33;;;29.30;87.50;;;;;;4947556;29;20489;-71
2022/05/19 12:24:21;;;;;;;4.10;4.10;;;29.40;87.00;;;;;;4946429;29;20618;-71
2022/05/19 12:26:56;;;;;;;4.30;4.20;;;29.40;87.20;;;;;;4955428;28;20574;-71
2022/05/19 12:29:30;;;;;;;4.47;4.27;;;29.40;86.20;;;;;;4953155;28;20541;-70
2022/05/19 12:32:07;;;;;;;3.87;3.80;;;29.50;86.30;;;;;;4955244;28;20991;-71
2022/05/19 12:34:41;;;;;;;3.90;3.80;;;29.50;85.60;;;;;;4952536;29;20473;-70
2022/05/19 12:37:31;;;;;;;5.07;4.77;;;29.40;85.00;;;;;;4955011;29;20833;-71
2022/05/19 12:43:07;;;;;;;4.70;4.40;;;29.40;84.80;;;;;;5088120;27;20537;-71
2022/05/19 12:45:43;;;;;;;4.50;4.30;;;29.30;85.60;;;;;;5087872;28;20467;-71
2022/05/19 12:48:39;;;;;;;3.90;3.90;;;29.30;85.50;;;;;;5090539;28;20455;-71
2022/05/19 12:51:16;;;;;;;4.50;4.40;;;29.40;85.20;;;;;;5080081;28;20848;-71
2022/05/19 12:54:01;;;;;;;3.83;3.73;;;29.50;85.40;;;;;;5088372;28;20487;-72
2022/05/19 12:57:07;;;;;;;5.10;4.90;;;29.60;86.10;;;;;;5085694;28;21138;-72
2022/05/19 12:59:44;;;;;;;4.77;4.57;;;29.60;85.10;;;;;;5082448;28;20802;-71
2022/05/19 13:02:17;;;;;;;4.50;4.40;;;29.60;84.90;;;;;;5088254;28;20553;-72
2022/05/19 13:04:47;;;;;;;4.30;4.20;;;29.50;85.50;;;;;;5069625;28;20839;-71
2022/05/19 13:07:21;;;;;;;4.20;4.03;;;29.50;85.60;;;;;;5081808;28;20462;-71
2022/05/19 13:10:04;;;;;;;4.53;4.33;;;29.60;85.50;;;;;;5084692;28;20963;-72
2022/05/19 13:12:44;;;;;;;4.40;4.30;;;29.60;85.80;;;;;;5087822;28;20628;-71
2022/05/19 13:15:13;;;;;;;3.97;3.87;;;29.70;85.40;;;;;;5072654;28;20986;-72
2022/05/19 13:17:43;;;;;;;4.03;3.93;;;29.70;84.50;;;;;;5071335;28;20482;-72
2022/05/19 13:20:15;;;;;;;4.53;4.13;;;29.70;84.60;;;;;;5086735;28;20460;-72
2022/05/19 13:22:49;;;;;;;3.77;3.60;;;29.80;84.00;;;;;;5087741;28;20515;-72
2022/05/19 13:25:16;;;;;;;3.73;3.63;;;29.70;83.20;;;;;;5087502;28;20480;-72
2022/05/19 13:30:33;;;;;;;3.87;3.77;;;29.50;81.80;;;;;;5086110;28;20441;-72
2022/05/19 13:33:08;;;;;;;4.57;3.70;;;29.50;83.80;;;;;;5087769;28;20466;-72
2022/05/19 13:35:35;;;;;;;5.27;3.67;;;29.50;82.60;;;;;;5087370;28;20463;-72
2022/05/19 13:38:15;;;;;;;3.53;3.43;;;29.40;82.60;;;;;;5087250;28;20469;-72
2022/05/19 13:40:43;;;;;;;4.63;4.43;;;29.20;82.50;;;;;;5086091;28;20554;-72
2022/05/19 13:43:14;;;;;;;4.27;4.07;;;29.20;84.60;;;;;;5087566;28;20524;-72
2022/05/19 13:45:45;;;;;;;4.07;3.80;;;29.30;83.70;;;;;;5086404;28;20826;-72
2022/05/19 13:48:17;;;;;;;3.40;3.40;;;29.40;83.80;;;;;;5087552;28;20472;-72
2022/05/19 13:50:44;;;;;;;4.17;3.97;;;29.50;83.40;;;;;;5086512;28;20534;-72
2022/05/19 13:53:13;;;;;;;3.57;3.50;;;29.70;83.30;;;;;;5079161;28;20461;-72
2022/05/19 13:55:40;;;;;;;4.23;4.07;;;29.70;82.60;;;;;;5074022;28;20530;-72
2022/05/19 13:58:15;;;;;;;3.80;3.70;;;29.70;81.50;;;;;;5073993;28;21017;-72
2022/05/19 14:00:43;;;;;;;3.43;3.23;;;29.80;83.70;;;;;;5072457;28;20489;-72
2022/05/19 14:03:11;;;;;;;3.33;3.33;;;29.90;81.70;;;;;;5074051;28;20496;-72
2022/05/19 14:05:40;;;;;;;3.63;3.53;;;30.00;82.20;;;;;;5072780;28;20458;-71
2022/05/19 14:08:10;;;;;;;3.57;3.40;;;29.90;80.70;;;;;;5073476;28;20875;-72
2022/05/19 14:10:41;;;;;;;3.43;3.37;;;29.90;80.60;;;;;;5072551;28;20484;-72
2022/05/19 14:13:08;;;;;;;4.10;4.00;;;29.80;80.60;;;;;;5073644;28;21010;-72
2022/05/19 14:15:39;;;;;;;3.67;3.57;;;29.80;81.40;;;;;;5072708;28;20941;-72
2022/05/19 14:18:12;;;;;;;3.97;3.80;;;29.80;81.70;;;;;;5073249;28;20777;-72
2022/05/19 14:20:42;;;;;;;3.77;3.57;;;29.70;80.80;;;;;;5072417;28;20520;-72
2022/05/19 14:23:13;;;;;;;3.90;3.80;;;29.70;80.80;;;;;;5073953;28;20485;-72
2022/05/19 14:25:41;;;;;;;3.27;3.20;;;29.70;80.30;;;;;;5073273;28;20529;-72
2022/05/19 14:28:20;;;;;;;4.30;3.90;;;29.90;81.40;;;;;;5072970;28;20457;-72
2022/05/19 14:30:48;;;;;;;3.60;3.50;;;30.00;81.20;;;;;;5071348;28;20489;-72
2022/05/19 14:33:21;;;;;;;3.70;3.37;;;29.90;80.30;;;;;;5073404;28;20461;-72
2022/05/19 14:35:50;;;;;;;3.47;3.37;;;29.90;80.90;;;;;;5073662;28;20461;-72
2022/05/19 14:38:21;;;;;;;3.40;3.30;;;30.00;78.70;;;;;;5070061;28;20530;-71
2022/05/19 14:43:41;;;;;;;3.97;3.80;;;30.20;78.90;;;;;;5073582;28;20830;-71
2022/05/19 14:46:10;;;;;;;3.57;3.47;;;30.30;79.50;;;;;;5073461;28;20479;-71
2022/05/19 14:48:41;;;;;;;3.00;3.00;;;30.30;77.50;;;;;;5073720;28;20466;-71
2022/05/19 14:51:12;;;;;;;3.40;3.20;;;30.30;78.20;;;;;;5073256;28;20532;-71
2022/05/19 14:53:40;;;;;;;3.53;3.33;;;30.20;78.70;;;;;;5073482;28;20979;-72
2022/05/19 14:56:10;;;;;;;3.63;3.43;;;30.20;78.20;;;;;;5073691;28;20506;-71
2022/05/19 14:58:45;;;;;;;3.27;3.07;;;30.10;76.40;;;;;;5072699;28;20468;-71
2022/05/19 15:01:12;;;;;;;3.37;3.27;;;30.20;77.80;;;;;;5071313;28;20483;-71
2022/05/19 15:03:40;;;;;;;3.50;3.40;;;30.20;76.70;;;;;;5072375;28;20474;-71
2022/05/19 15:06:07;;;;;;;3.10;3.00;;;30.30;76.60;;;;;;5071295;28;20466;-72
2022/05/19 15:08:34;;;;;;;3.27;3.27;;;30.30;76.30;;;;;;5068978;28;20462;-72
2022/05/19 15:11:01;;;;;;;3.67;3.57;;;30.30;76.60;;;;;;5071096;28;21006;-72
2022/05/19 15:13:28;;;;;;;3.03;2.97;;;30.20;77.80;;;;;;5071921;28;20946;-72
2022/05/19 15:15:54;;;;;;;3.10;2.97;;;30.20;78.90;;;;;;5071031;28;20469;-72
2022/05/19 15:18:21;;;;;;;2.93;2.93;;;30.10;76.00;;;;;;5071683;28;20465;-72
2022/05/19 15:20:49;;;;;;;3.10;2.97;;;30.00;75.40;;;;;;5070739;28;21043;-72
2022/05/19 15:23:18;;;;;;;4.07;3.60;;;29.80;75.50;;;;;;5071604;28;21018;-72
2022/05/19 15:25:46;;;;;;;3.30;3.20;;;29.60;75.70;;;;;;5071610;28;20563;-72
2022/05/19 15:28:14;;;;;;;3.40;3.30;;;29.60;76.70;;;;;;5071455;28;20972;-72
2022/05/19 15:30:41;;;;;;;3.10;3.10;;;29.60;77.60;;;;;;5070121;28;20547;-72
2022/05/19 15:33:08;;;;;;;2.90;2.90;;;29.60;78.00;;;;;;5071361;28;20468;-72
2022/05/19 15:35:34;;;;;;;3.63;3.40;;;29.60;77.00;;;;;;5071526;28;20477;-72
2022/05/19 15:38:03;;;;;;;3.03;3.03;;;29.60;76.20;;;;;;5071447;28;21031;-72
2022/05/19 15:40:29;;;;;;;3.60;3.50;;;29.40;77.50;;;;;;5070743;28;20459;-72
2022/05/19 15:42:57;;;;;;;3.30;3.20;;;29.40;77.90;;;;;;5071122;28;20534;-72
2022/05/19 15:45:24;;;;;;;3.53;3.23;;;29.50;78.60;;;;;;5070278;28;21030;-72
2022/05/19 15:47:53;;;;;;;4.00;3.70;;;29.50;79.30;;;;;;5071400;28;20529;-72
2022/05/19 15:50:22;;;;;;;3.33;3.30;;;29.40;79.10;;;;;;5070282;28;20897;-72
2022/05/19 15:52:52;;;;;;;3.73;3.57;;;29.40;79.10;;;;;;5071131;28;20507;-72
2022/05/19 15:55:21;;;;;;;3.53;3.10;;;29.30;79.70;;;;;;5070942;28;20837;-72
2022/05/19 15:57:48;;;;;;;3.23;3.07;;;29.30;79.90;;;;;;5070301;28;20875;-72
2022/05/19 16:00:17;;;;;;;3.20;3.10;;;29.20;80.80;;;;;;5069042;28;20542;-72
2022/05/19 16:02:47;;;;;;;3.60;3.40;;;29.10;81.30;;;;;;5070944;28;20488;-72
2022/05/19 16:05:15;;;;;;;3.23;3.03;;;29.10;81.60;;;;;;5071628;28;20966;-72
2022/05/19 16:07:43;;;;;;;3.77;3.53;;;29.00;81.30;;;;;;5071804;28;21008;-73
2022/05/19 16:10:12;;;;;;;4.00;3.80;;;28.80;81.30;;;;;;5070690;28;20496;-72
2022/05/19 16:12:41;;;;;;;3.27;3.27;;;28.70;83.50;;;;;;5070537;28;21013;-72
2022/05/19 16:15:09;;;;;;;4.23;4.03;;;28.50;85.10;;;;;;5069640;28;20958;-72
2022/05/19 16:17:38;;;;;;;3.83;3.53;;;28.40;84.80;;;;;;5071092;28;20479;-72
2022/05/19 16:20:07;;;;;;;3.47;3.40;;;28.20;84.90;;;;;;5070079;28;20522;-72
2022/05/19 16:22:34;;;;;;;3.77;3.47;;;28.10;85.30;;;;;;5070514;28;20553;-72
2022/05/19 16:25:05;;;;;;;8.40;4.60;;;28.00;87.60;;;;;;5070363;28;20521;-72
2022/05/19 16:27:32;;;;;;;8.43;4.33;;;27.30;97.60;;;;;;5070855;28;20896;-72
2022/05/19 16:30:00;;;;;;;4.30;3.93;;;26.00;99.90;;;;;;5069049;28;20494;-71
2022/05/19 16:32:26;;;;;;;11.30;4.57;;;24.40;99.90;;;;;;5070887;28;20476;-71
2022/05/19 16:34:53;;;;;;;4.33;4.00;;;23.20;99.90;;;;;;5070723;28;20463;-71
2022/05/19 16:37:23;;;;;;;5.03;4.60;;;22.40;99.90;;;;;;5067155;28;20525;-71
2022/05/19 16:39:50;;;;;;;4.53;4.40;;;22.00;99.90;;;;;;5069592;28;20463;-71
2022/05/19 16:42:17;;;;;;;4.27;3.80;;;21.50;99.90;;;;;;5070215;28;20907;-72
2022/05/19 16:44:44;;;;;;;6.53;4.43;;;21.10;99.90;;;;;;5069547;28;20479;-71
2022/05/19 16:47:13;;;;;;;4.60;4.27;;;21.00;99.90;;;;;;5071032;28;20521;-70
2022/05/19 16:49:40;;;;;;;4.60;4.30;;;20.90;99.90;;;;;;5069758;28;20967;-70
2022/05/19 16:52:09;;;;;;;4.90;4.50;;;20.90;99.90;;;;;;5070312;28;20505;-70
2022/05/19 16:57:43;;;;;;;4.40;4.17;;;20.80;99.90;;;;;;5070478;28;20442;-70
2022/05/19 17:00:13;;;;;;;4.57;4.30;;;20.50;99.90;;;;;;5068997;28;20470;-70
2022/05/19 17:02:42;;;;;;;4.30;3.90;;;20.20;99.90;;;;;;5069666;28;20852;-70
2022/05/19 17:05:10;;;;;;;4.13;3.93;;;20.10;99.90;;;;;;5070324;28;20506;-70
2022/05/19 17:07:38;;;;;;;5.47;5.00;;;20.10;99.90;;;;;;5070647;28;20529;-70
2022/05/19 17:10:06;;;;;;;4.30;4.00;;;20.10;99.90;;;;;;5069622;28;20470;-69
2022/05/19 17:12:33;;;;;;;4.47;4.27;;;20.00;99.90;;;;;;5070107;28;20478;-69
2022/05/19 17:15:00;;;;;;;3.53;3.30;;;19.90;99.90;;;;;;5069379;28;20562;-69
2022/05/19 17:17:27;;;;;;;4.00;3.10;;;19.70;99.90;;;;;;5069829;28;20463;-69
2022/05/19 17:19:55;;;;;;;4.10;3.77;;;19.60;99.90;;;;;;5069559;28;20571;-69
2022/05/19 17:22:22;;;;;;;4.27;3.93;;;19.50;99.90;;;;;;5070147;28;20556;-69
2022/05/19 17:24:48;;;;;;;4.43;4.13;;;19.70;99.90;;;;;;5075069;28;20978;-70
2022/05/19 17:27:17;;;;;;;4.23;4.13;;;19.70;99.90;;;;;;5078644;28;20455;-70
2022/05/19 17:29:44;;;;;;;4.23;3.90;;;19.70;99.90;;;;;;5075194;28;20566;-69
2022/05/19 17:32:10;;;;;;;4.43;4.23;;;19.60;99.90;;;;;;5086333;28;20520;-70
2022/05/19 17:34:37;;;;;;;3.67;3.57;;;19.60;99.90;;;;;;5089812;28;20860;-71